sensor_id;sensor_type;location;lat;lon;timestamp;P1;durP1;ratioP1;P2;durP2;ratioP2
75837;SDS011;64480;52.040;113.502;2023-08-12T00:01:03;5.90;;;4.18;;
75837;SDS011;64480;52.040;113.502;2023-08-12T00:04:18;8.43;;;4.18;;
75837;SDS011;64480;52.040;113.502;2023-08-12T00:07:32;7.20;;;3.38;;
75837;SDS011;64480;52.040;113.502;2023-08-12T00:10:37;9.80;;;4.50;;
75837;SDS011;64480;52.040;113.502;2023-08-12T00:13:42;12.77;;;4.28;;
75837;SDS011;64480;52.040;113.502;2023-08-12T00:16:46;9.25;;;4.43;;
75837;SDS011;64480;52.040;113.502;2023-08-12T00:19:50;21.13;;;5.20;;
75837;SDS011;64480;52.040;113.502;2023-08-12T00:22:55;18.80;;;9.93;;
75837;SDS011;64480;52.040;113.502;2023-08-12T00:25:58;15.60;;;5.00;;
75837;SDS011;64480;52.040;113.502;2023-08-12T00:29:03;16.00;;;6.32;;
75837;SDS011;64480;52.040;113.502;2023-08-12T00:32:09;9.68;;;4.80;;
75837;SDS011;64480;52.040;113.502;2023-08-12T00:35:13;7.82;;;4.15;;
75837;SDS011;64480;52.040;113.502;2023-08-12T00:38:17;6.50;;;4.45;;
75837;SDS011;64480;52.040;113.502;2023-08-12T00:41:21;9.30;;;4.78;;
75837;SDS011;64480;52.040;113.502;2023-08-12T00:44:25;13.88;;;5.30;;
75837;SDS011;64480;52.040;113.502;2023-08-12T00:47:42;6.13;;;4.10;;
75837;SDS011;64480;52.040;113.502;2023-08-12T00:50:47;9.27;;;4.53;;
75837;SDS011;64480;52.040;113.502;2023-08-12T00:53:51;11.82;;;5.60;;
75837;SDS011;64480;52.040;113.502;2023-08-12T00:56:57;7.70;;;4.40;;
75837;SDS011;64480;52.040;113.502;2023-08-12T01:00:04;14.13;;;4.32;;
75837;SDS011;64480;52.040;113.502;2023-08-12T01:03:10;12.82;;;4.85;;
75837;SDS011;64480;52.040;113.502;2023-08-12T01:06:14;7.93;;;4.30;;
75837;SDS011;64480;52.040;113.502;2023-08-12T01:09:19;11.32;;;4.63;;
75837;SDS011;64480;52.040;113.502;2023-08-12T01:12:28;9.13;;;5.38;;
75837;SDS011;64480;52.040;113.502;2023-08-12T01:15:36;13.23;;;4.60;;
75837;SDS011;64480;52.040;113.502;2023-08-12T01:18:44;11.35;;;4.43;;
75837;SDS011;64480;52.040;113.502;2023-08-12T01:21:49;7.50;;;3.72;;
75837;SDS011;64480;52.040;113.502;2023-08-12T01:24:59;6.90;;;4.40;;
75837;SDS011;64480;52.040;113.502;2023-08-12T01:28:03;8.30;;;4.88;;
75837;SDS011;64480;52.040;113.502;2023-08-12T01:31:15;12.50;;;4.43;;
75837;SDS011;64480;52.040;113.502;2023-08-12T01:34:30;10.88;;;4.63;;
75837;SDS011;64480;52.040;113.502;2023-08-12T01:37:47;8.93;;;4.53;;
75837;SDS011;64480;52.040;113.502;2023-08-12T01:40:56;9.70;;;4.47;;
75837;SDS011;64480;52.040;113.502;2023-08-12T01:44:02;8.32;;;4.72;;
75837;SDS011;64480;52.040;113.502;2023-08-12T01:47:08;15.23;;;4.90;;
75837;SDS011;64480;52.040;113.502;2023-08-12T01:50:13;17.30;;;6.13;;
75837;SDS011;64480;52.040;113.502;2023-08-12T01:53:17;5.97;;;4.40;;
75837;SDS011;64480;52.040;113.502;2023-08-12T01:56:25;17.55;;;6.22;;
75837;SDS011;64480;52.040;113.502;2023-08-12T01:59:28;12.20;;;5.90;;
75837;SDS011;64480;52.040;113.502;2023-08-12T02:02:32;7.80;;;4.60;;
75837;SDS011;64480;52.040;113.502;2023-08-12T02:05:39;11.40;;;4.57;;
75837;SDS011;64480;52.040;113.502;2023-08-12T02:08:44;6.00;;;3.92;;
75837;SDS011;64480;52.040;113.502;2023-08-12T02:11:49;14.07;;;6.07;;
75837;SDS011;64480;52.040;113.502;2023-08-12T02:14:58;12.25;;;4.95;;
75837;SDS011;64480;52.040;113.502;2023-08-12T02:18:05;12.27;;;4.53;;
75837;SDS011;64480;52.040;113.502;2023-08-12T02:21:10;14.60;;;5.72;;
75837;SDS011;64480;52.040;113.502;2023-08-12T02:24:28;10.00;;;5.32;;
75837;SDS011;64480;52.040;113.502;2023-08-12T02:27:35;9.40;;;5.05;;
75837;SDS011;64480;52.040;113.502;2023-08-12T02:30:41;7.65;;;5.00;;
75837;SDS011;64480;52.040;113.502;2023-08-12T02:33:48;6.00;;;4.18;;
75837;SDS011;64480;52.040;113.502;2023-08-12T02:36:56;10.98;;;4.70;;
75837;SDS011;64480;52.040;113.502;2023-08-12T02:40:04;3.60;;;3.08;;
75837;SDS011;64480;52.040;113.502;2023-08-12T02:43:23;8.27;;;3.65;;
75837;SDS011;64480;52.040;113.502;2023-08-12T02:46:30;7.50;;;3.90;;
75837;SDS011;64480;52.040;113.502;2023-08-12T02:49:35;7.95;;;3.65;;
75837;SDS011;64480;52.040;113.502;2023-08-12T02:53:11;8.70;;;3.90;;
75837;SDS011;64480;52.040;113.502;2023-08-12T02:56:34;6.25;;;4.07;;
75837;SDS011;64480;52.040;113.502;2023-08-12T02:59:51;7.63;;;4.20;;
75837;SDS011;64480;52.040;113.502;2023-08-12T03:02:55;6.50;;;4.15;;
75837;SDS011;64480;52.040;113.502;2023-08-12T03:06:14;7.88;;;4.30;;
75837;SDS011;64480;52.040;113.502;2023-08-12T03:09:19;7.10;;;3.58;;
75837;SDS011;64480;52.040;113.502;2023-08-12T03:12:23;8.13;;;3.80;;
75837;SDS011;64480;52.040;113.502;2023-08-12T03:15:29;15.00;;;5.28;;
75837;SDS011;64480;52.040;113.502;2023-08-12T03:18:34;7.68;;;3.22;;
75837;SDS011;64480;52.040;113.502;2023-08-12T03:21:44;4.95;;;3.53;;
75837;SDS011;64480;52.040;113.502;2023-08-12T03:24:50;6.43;;;3.60;;
75837;SDS011;64480;52.040;113.502;2023-08-12T03:27:55;8.05;;;3.42;;
75837;SDS011;64480;52.040;113.502;2023-08-12T03:31:01;5.28;;;2.90;;
75837;SDS011;64480;52.040;113.502;2023-08-12T03:34:06;6.60;;;2.78;;
75837;SDS011;64480;52.040;113.502;2023-08-12T03:37:11;12.60;;;3.83;;
75837;SDS011;64480;52.040;113.502;2023-08-12T03:40:16;7.30;;;3.50;;
75837;SDS011;64480;52.040;113.502;2023-08-12T03:43:34;9.55;;;3.30;;
75837;SDS011;64480;52.040;113.502;2023-08-12T03:46:40;8.43;;;3.22;;
75837;SDS011;64480;52.040;113.502;2023-08-12T03:50:01;4.43;;;2.95;;
75837;SDS011;64480;52.040;113.502;2023-08-12T03:53:06;8.73;;;3.33;;
75837;SDS011;64480;52.040;113.502;2023-08-12T03:56:20;5.72;;;2.67;;
75837;SDS011;64480;52.040;113.502;2023-08-12T03:59:31;8.60;;;3.50;;
75837;SDS011;64480;52.040;113.502;2023-08-12T04:02:36;9.02;;;4.70;;
75837;SDS011;64480;52.040;113.502;2023-08-12T04:05:51;4.53;;;3.42;;
75837;SDS011;64480;52.040;113.502;2023-08-12T04:08:56;6.95;;;3.47;;
75837;SDS011;64480;52.040;113.502;2023-08-12T04:12:02;7.63;;;3.13;;
75837;SDS011;64480;52.040;113.502;2023-08-12T04:15:08;15.45;;;5.18;;
75837;SDS011;64480;52.040;113.502;2023-08-12T04:18:12;4.38;;;2.97;;
75837;SDS011;64480;52.040;113.502;2023-08-12T04:21:16;5.55;;;2.92;;
75837;SDS011;64480;52.040;113.502;2023-08-12T04:24:22;14.73;;;3.88;;
75837;SDS011;64480;52.040;113.502;2023-08-12T04:27:27;7.30;;;3.60;;
75837;SDS011;64480;52.040;113.502;2023-08-12T04:30:33;3.28;;;2.33;;
75837;SDS011;64480;52.040;113.502;2023-08-12T04:33:51;4.53;;;2.90;;
75837;SDS011;64480;52.040;113.502;2023-08-12T04:37:01;6.28;;;3.08;;
75837;SDS011;64480;52.040;113.502;2023-08-12T04:40:06;12.40;;;3.63;;
75837;SDS011;64480;52.040;113.502;2023-08-12T04:43:17;3.78;;;2.58;;
75837;SDS011;64480;52.040;113.502;2023-08-12T04:46:34;6.18;;;3.13;;
75837;SDS011;64480;52.040;113.502;2023-08-12T04:49:40;6.55;;;3.70;;
75837;SDS011;64480;52.040;113.502;2023-08-12T04:52:44;7.30;;;2.67;;
75837;SDS011;64480;52.040;113.502;2023-08-12T04:55:50;7.05;;;3.40;;
75837;SDS011;64480;52.040;113.502;2023-08-12T04:59:07;9.82;;;3.95;;
75837;SDS011;64480;52.040;113.502;2023-08-12T05:02:21;6.65;;;3.40;;
75837;SDS011;64480;52.040;113.502;2023-08-12T05:05:39;6.63;;;2.63;;
75837;SDS011;64480;52.040;113.502;2023-08-12T05:09:00;6.97;;;3.20;;
75837;SDS011;64480;52.040;113.502;2023-08-12T05:12:18;8.82;;;3.20;;
75837;SDS011;64480;52.040;113.502;2023-08-12T05:15:24;9.48;;;3.67;;
75837;SDS011;64480;52.040;113.502;2023-08-12T05:18:29;9.35;;;3.05;;
75837;SDS011;64480;52.040;113.502;2023-08-12T05:21:34;16.67;;;4.22;;
75837;SDS011;64480;52.040;113.502;2023-08-12T05:27:58;5.07;;;2.67;;
75837;SDS011;64480;52.040;113.502;2023-08-12T05:31:15;3.80;;;2.78;;
75837;SDS011;64480;52.040;113.502;2023-08-12T05:34:35;6.80;;;3.40;;
75837;SDS011;64480;52.040;113.502;2023-08-12T05:37:51;5.93;;;3.65;;
75837;SDS011;64480;52.040;113.502;2023-08-12T05:40:57;7.55;;;3.70;;
75837;SDS011;64480;52.040;113.502;2023-08-12T05:44:00;9.23;;;4.45;;
75837;SDS011;64480;52.040;113.502;2023-08-12T05:47:04;8.75;;;6.38;;
75837;SDS011;64480;52.040;113.502;2023-08-12T05:50:21;10.98;;;3.45;;
75837;SDS011;64480;52.040;113.502;2023-08-12T05:53:25;20.88;;;6.43;;
75837;SDS011;64480;52.040;113.502;2023-08-12T05:56:44;7.45;;;3.67;;
75837;SDS011;64480;52.040;113.502;2023-08-12T05:59:48;3.78;;;2.40;;
75837;SDS011;64480;52.040;113.502;2023-08-12T06:03:12;5.38;;;2.67;;
75837;SDS011;64480;52.040;113.502;2023-08-12T06:06:30;5.43;;;2.30;;
75837;SDS011;64480;52.040;113.502;2023-08-12T06:09:52;7.50;;;2.22;;
75837;SDS011;64480;52.040;113.502;2023-08-12T06:12:57;7.07;;;2.58;;
75837;SDS011;64480;52.040;113.502;2023-08-12T06:16:14;5.10;;;2.33;;
75837;SDS011;64480;52.040;113.502;2023-08-12T06:19:31;5.00;;;2.58;;
75837;SDS011;64480;52.040;113.502;2023-08-12T06:22:49;4.28;;;2.30;;
75837;SDS011;64480;52.040;113.502;2023-08-12T06:25:54;6.82;;;3.08;;
75837;SDS011;64480;52.040;113.502;2023-08-12T06:28:59;7.47;;;2.85;;
75837;SDS011;64480;52.040;113.502;2023-08-12T06:32:16;5.45;;;2.63;;
75837;SDS011;64480;52.040;113.502;2023-08-12T06:35:34;7.28;;;3.90;;
75837;SDS011;64480;52.040;113.502;2023-08-12T06:38:54;5.30;;;2.78;;
75837;SDS011;64480;52.040;113.502;2023-08-12T06:42:12;7.18;;;4.13;;
75837;SDS011;64480;52.040;113.502;2023-08-12T06:45:30;6.13;;;2.70;;
75837;SDS011;64480;52.040;113.502;2023-08-12T06:48:37;4.75;;;2.85;;
75837;SDS011;64480;52.040;113.502;2023-08-12T06:51:54;12.00;;;2.72;;
75837;SDS011;64480;52.040;113.502;2023-08-12T06:55:13;4.38;;;2.13;;
75837;SDS011;64480;52.040;113.502;2023-08-12T06:58:30;9.30;;;3.53;;
75837;SDS011;64480;52.040;113.502;2023-08-12T07:01:49;2.80;;;2.10;;
75837;SDS011;64480;52.040;113.502;2023-08-12T07:05:08;3.65;;;2.25;;
75837;SDS011;64480;52.040;113.502;2023-08-12T07:08:35;7.57;;;3.42;;
75837;SDS011;64480;52.040;113.502;2023-08-12T07:11:57;9.05;;;4.18;;
75837;SDS011;64480;52.040;113.502;2023-08-12T07:15:18;9.45;;;4.20;;
75837;SDS011;64480;52.040;113.502;2023-08-12T07:18:36;6.63;;;4.47;;
75837;SDS011;64480;52.040;113.502;2023-08-12T07:21:54;8.52;;;3.08;;
75837;SDS011;64480;52.040;113.502;2023-08-12T07:24:58;5.90;;;3.13;;
75837;SDS011;64480;52.040;113.502;2023-08-12T07:28:11;5.25;;;3.13;;
75837;SDS011;64480;52.040;113.502;2023-08-12T07:31:15;7.65;;;3.15;;
75837;SDS011;64480;52.040;113.502;2023-08-12T07:34:19;3.40;;;2.20;;
75837;SDS011;64480;52.040;113.502;2023-08-12T07:37:23;3.38;;;2.40;;
75837;SDS011;64480;52.040;113.502;2023-08-12T07:40:31;4.60;;;2.58;;
75837;SDS011;64480;52.040;113.502;2023-08-12T07:43:35;5.45;;;2.85;;
75837;SDS011;64480;52.040;113.502;2023-08-12T07:46:39;5.22;;;2.42;;
75837;SDS011;64480;52.040;113.502;2023-08-12T07:49:44;5.22;;;3.00;;
75837;SDS011;64480;52.040;113.502;2023-08-12T07:52:48;6.65;;;3.60;;
75837;SDS011;64480;52.040;113.502;2023-08-12T07:55:52;7.40;;;4.20;;
75837;SDS011;64480;52.040;113.502;2023-08-12T07:58:56;6.25;;;3.70;;
75837;SDS011;64480;52.040;113.502;2023-08-12T08:02:00;5.30;;;3.78;;
75837;SDS011;64480;52.040;113.502;2023-08-12T08:05:04;6.90;;;3.55;;
75837;SDS011;64480;52.040;113.502;2023-08-12T08:08:08;4.65;;;3.38;;
75837;SDS011;64480;52.040;113.502;2023-08-12T08:11:13;4.88;;;3.17;;
75837;SDS011;64480;52.040;113.502;2023-08-12T08:14:17;5.30;;;3.38;;
75837;SDS011;64480;52.040;113.502;2023-08-12T08:17:25;4.70;;;3.35;;
75837;SDS011;64480;52.040;113.502;2023-08-12T08:20:39;5.45;;;3.47;;
75837;SDS011;64480;52.040;113.502;2023-08-12T08:23:47;7.28;;;3.78;;
75837;SDS011;64480;52.040;113.502;2023-08-12T08:26:51;6.55;;;4.25;;
75837;SDS011;64480;52.040;113.502;2023-08-12T08:29:57;7.40;;;4.20;;
75837;SDS011;64480;52.040;113.502;2023-08-12T08:33:02;8.95;;;4.28;;
75837;SDS011;64480;52.040;113.502;2023-08-12T08:36:09;7.25;;;4.20;;
75837;SDS011;64480;52.040;113.502;2023-08-12T08:39:13;7.53;;;4.97;;
75837;SDS011;64480;52.040;113.502;2023-08-12T08:42:30;6.50;;;4.05;;
75837;SDS011;64480;52.040;113.502;2023-08-12T08:45:53;7.60;;;3.45;;
75837;SDS011;64480;52.040;113.502;2023-08-12T08:48:59;6.78;;;4.35;;
75837;SDS011;64480;52.040;113.502;2023-08-12T08:52:06;8.07;;;4.13;;
75837;SDS011;64480;52.040;113.502;2023-08-12T08:55:24;5.90;;;3.03;;
75837;SDS011;64480;52.040;113.502;2023-08-12T08:58:42;6.35;;;2.35;;
75837;SDS011;64480;52.040;113.502;2023-08-12T09:01:50;3.22;;;1.80;;
75837;SDS011;64480;52.040;113.502;2023-08-12T09:04:58;3.22;;;1.92;;
75837;SDS011;64480;52.040;113.502;2023-08-12T09:08:04;5.22;;;2.50;;
75837;SDS011;64480;52.040;113.502;2023-08-12T09:11:13;3.75;;;2.40;;
75837;SDS011;64480;52.040;113.502;2023-08-12T09:14:17;4.88;;;2.75;;
75837;SDS011;64480;52.040;113.502;2023-08-12T09:17:22;5.65;;;2.53;;
75837;SDS011;64480;52.040;113.502;2023-08-12T09:20:43;4.45;;;2.65;;
75837;SDS011;64480;52.040;113.502;2023-08-12T09:23:47;7.40;;;2.70;;
75837;SDS011;64480;52.040;113.502;2023-08-12T09:27:06;4.00;;;2.00;;
75837;SDS011;64480;52.040;113.502;2023-08-12T09:30:23;5.10;;;2.65;;
75837;SDS011;64480;52.040;113.502;2023-08-12T09:33:42;6.40;;;2.42;;
75837;SDS011;64480;52.040;113.502;2023-08-12T09:36:46;7.00;;;2.80;;
75837;SDS011;64480;52.040;113.502;2023-08-12T09:40:04;4.90;;;1.88;;
75837;SDS011;64480;52.040;113.502;2023-08-12T09:43:24;5.10;;;2.53;;
75837;SDS011;64480;52.040;113.502;2023-08-12T09:46:34;4.97;;;1.95;;
75837;SDS011;64480;52.040;113.502;2023-08-12T09:49:50;4.53;;;1.83;;
75837;SDS011;64480;52.040;113.502;2023-08-12T09:52:56;3.72;;;2.03;;
75837;SDS011;64480;52.040;113.502;2023-08-12T09:56:08;6.63;;;2.10;;
75837;SDS011;64480;52.040;113.502;2023-08-12T09:59:32;2.63;;;1.85;;
75837;SDS011;64480;52.040;113.502;2023-08-12T10:02:52;4.03;;;2.20;;
75837;SDS011;64480;52.040;113.502;2023-08-12T10:06:11;3.85;;;2.03;;
75837;SDS011;64480;52.040;113.502;2023-08-12T10:09:28;6.78;;;2.35;;
75837;SDS011;64480;52.040;113.502;2023-08-12T10:12:46;4.07;;;2.08;;
75837;SDS011;64480;52.040;113.502;2023-08-12T10:16:07;3.83;;;1.90;;
75837;SDS011;64480;52.040;113.502;2023-08-12T10:19:14;5.50;;;2.10;;
75837;SDS011;64480;52.040;113.502;2023-08-12T10:22:37;4.53;;;1.67;;
75837;SDS011;64480;52.040;113.502;2023-08-12T10:25:43;3.42;;;2.05;;
75837;SDS011;64480;52.040;113.502;2023-08-12T10:29:01;4.88;;;2.00;;
75837;SDS011;64480;52.040;113.502;2023-08-12T10:32:20;5.50;;;2.50;;
75837;SDS011;64480;52.040;113.502;2023-08-12T10:35:44;5.75;;;2.22;;
75837;SDS011;64480;52.040;113.502;2023-08-12T10:39:03;4.78;;;2.25;;
75837;SDS011;64480;52.040;113.502;2023-08-12T10:42:41;10.43;;;2.40;;
75837;SDS011;64480;52.040;113.502;2023-08-12T10:45:47;5.18;;;2.72;;
75837;SDS011;64480;52.040;113.502;2023-08-12T10:49:12;12.55;;;2.83;;
75837;SDS011;64480;52.040;113.502;2023-08-12T10:52:29;3.28;;;2.10;;
75837;SDS011;64480;52.040;113.502;2023-08-12T10:55:48;2.88;;;1.70;;
75837;SDS011;64480;52.040;113.502;2023-08-12T10:58:59;4.75;;;1.70;;
75837;SDS011;64480;52.040;113.502;2023-08-12T11:02:19;4.82;;;2.10;;
75837;SDS011;64480;52.040;113.502;2023-08-12T11:05:37;4.13;;;2.45;;
75837;SDS011;64480;52.040;113.502;2023-08-12T11:08:48;5.32;;;2.28;;
75837;SDS011;64480;52.040;113.502;2023-08-12T11:11:58;7.43;;;2.90;;
75837;SDS011;64480;52.040;113.502;2023-08-12T11:18:49;3.45;;;2.00;;
75837;SDS011;64480;52.040;113.502;2023-08-12T11:21:53;10.02;;;3.00;;
75837;SDS011;64480;52.040;113.502;2023-08-12T11:25:12;10.20;;;2.58;;
75837;SDS011;64480;52.040;113.502;2023-08-12T11:28:22;13.20;;;3.58;;
75837;SDS011;64480;52.040;113.502;2023-08-12T11:31:42;9.15;;;2.58;;
75837;SDS011;64480;52.040;113.502;2023-08-12T11:34:58;10.57;;;2.78;;
75837;SDS011;64480;52.040;113.502;2023-08-12T11:38:06;11.57;;;3.28;;
75837;SDS011;64480;52.040;113.502;2023-08-12T11:41:24;11.95;;;3.00;;
75837;SDS011;64480;52.040;113.502;2023-08-12T11:44:41;13.75;;;2.92;;
75837;SDS011;64480;52.040;113.502;2023-08-12T11:47:46;8.02;;;2.80;;
75837;SDS011;64480;52.040;113.502;2023-08-12T11:51:09;6.60;;;2.35;;
75837;SDS011;64480;52.040;113.502;2023-08-12T11:54:27;8.77;;;2.20;;
75837;SDS011;64480;52.040;113.502;2023-08-12T11:57:32;5.10;;;2.45;;
75837;SDS011;64480;52.040;113.502;2023-08-12T12:01:25;10.75;;;3.30;;
75837;SDS011;64480;52.040;113.502;2023-08-12T12:04:44;10.65;;;3.08;;
75837;SDS011;64480;52.040;113.502;2023-08-12T12:07:48;16.73;;;4.50;;
75837;SDS011;64480;52.040;113.502;2023-08-12T12:11:07;7.60;;;2.70;;
75837;SDS011;64480;52.040;113.502;2023-08-12T12:17:52;11.23;;;3.70;;
75837;SDS011;64480;52.040;113.502;2023-08-12T12:21:09;11.05;;;3.28;;
75837;SDS011;64480;52.040;113.502;2023-08-12T12:24:28;13.57;;;6.80;;
75837;SDS011;64480;52.040;113.502;2023-08-12T12:27:48;18.05;;;3.97;;
75837;SDS011;64480;52.040;113.502;2023-08-12T12:31:07;12.70;;;4.38;;
75837;SDS011;64480;52.040;113.502;2023-08-12T12:34:11;23.00;;;8.98;;
75837;SDS011;64480;52.040;113.502;2023-08-12T12:37:17;14.85;;;5.47;;
75837;SDS011;64480;52.040;113.502;2023-08-12T12:40:35;15.85;;;5.68;;
75837;SDS011;64480;52.040;113.502;2023-08-12T12:43:54;15.55;;;4.57;;
75837;SDS011;64480;52.040;113.502;2023-08-12T12:47:12;9.35;;;3.65;;
75837;SDS011;64480;52.040;113.502;2023-08-12T12:50:30;10.13;;;3.53;;
75837;SDS011;64480;52.040;113.502;2023-08-12T12:53:48;11.13;;;4.43;;
75837;SDS011;64480;52.040;113.502;2023-08-12T12:57:08;5.93;;;3.35;;
75837;SDS011;64480;52.040;113.502;2023-08-12T13:03:44;9.52;;;2.83;;
75837;SDS011;64480;52.040;113.502;2023-08-12T13:07:04;14.70;;;3.50;;
75837;SDS011;64480;52.040;113.502;2023-08-12T13:10:21;9.80;;;4.45;;
75837;SDS011;64480;52.040;113.502;2023-08-12T13:13:43;9.90;;;5.82;;
75837;SDS011;64480;52.040;113.502;2023-08-12T13:17:03;13.82;;;4.72;;
75837;SDS011;64480;52.040;113.502;2023-08-12T13:20:32;9.07;;;4.93;;
75837;SDS011;64480;52.040;113.502;2023-08-12T13:23:49;10.55;;;5.50;;
75837;SDS011;64480;52.040;113.502;2023-08-12T13:27:00;8.85;;;5.05;;
75837;SDS011;64480;52.040;113.502;2023-08-12T13:30:17;9.32;;;4.95;;
75837;SDS011;64480;52.040;113.502;2023-08-12T13:33:38;15.57;;;6.00;;
75837;SDS011;64480;52.040;113.502;2023-08-12T13:36:56;10.25;;;6.13;;
75837;SDS011;64480;52.040;113.502;2023-08-12T13:40:14;13.27;;;6.05;;
75837;SDS011;64480;52.040;113.502;2023-08-12T13:43:34;13.90;;;7.78;;
75837;SDS011;64480;52.040;113.502;2023-08-12T13:46:50;16.63;;;8.57;;
75837;SDS011;64480;52.040;113.502;2023-08-12T13:50:08;13.98;;;7.22;;
75837;SDS011;64480;52.040;113.502;2023-08-12T13:53:32;13.77;;;6.70;;
75837;SDS011;64480;52.040;113.502;2023-08-12T13:56:49;11.15;;;5.82;;
75837;SDS011;64480;52.040;113.502;2023-08-12T14:00:11;15.60;;;5.80;;
75837;SDS011;64480;52.040;113.502;2023-08-12T14:03:32;11.45;;;5.57;;
75837;SDS011;64480;52.040;113.502;2023-08-12T14:06:55;8.38;;;4.70;;
75837;SDS011;64480;52.040;113.502;2023-08-12T14:10:13;10.63;;;4.82;;
75837;SDS011;64480;52.040;113.502;2023-08-12T14:13:31;13.57;;;6.07;;
75837;SDS011;64480;52.040;113.502;2023-08-12T14:16:55;16.42;;;5.60;;
75837;SDS011;64480;52.040;113.502;2023-08-12T14:20:26;6.63;;;3.97;;
75837;SDS011;64480;52.040;113.502;2023-08-12T14:23:48;9.95;;;4.25;;
75837;SDS011;64480;52.040;113.502;2023-08-12T14:27:10;7.18;;;3.50;;
75837;SDS011;64480;52.040;113.502;2023-08-12T14:30:29;14.55;;;4.10;;
75837;SDS011;64480;52.040;113.502;2023-08-12T14:33:51;7.55;;;4.00;;
75837;SDS011;64480;52.040;113.502;2023-08-12T14:37:11;6.80;;;3.70;;
75837;SDS011;64480;52.040;113.502;2023-08-12T14:40:31;10.93;;;4.38;;
75837;SDS011;64480;52.040;113.502;2023-08-12T14:43:51;6.55;;;3.72;;
75837;SDS011;64480;52.040;113.502;2023-08-12T14:47:08;5.97;;;3.88;;
75837;SDS011;64480;52.040;113.502;2023-08-12T14:50:26;7.32;;;3.45;;
75837;SDS011;64480;52.040;113.502;2023-08-12T14:53:42;9.82;;;3.92;;
75837;SDS011;64480;52.040;113.502;2023-08-12T14:57:02;16.00;;;3.83;;
75837;SDS011;64480;52.040;113.502;2023-08-12T15:00:18;14.20;;;3.65;;
75837;SDS011;64480;52.040;113.502;2023-08-12T15:03:36;6.18;;;3.72;;
75837;SDS011;64480;52.040;113.502;2023-08-12T15:06:40;7.88;;;4.03;;
75837;SDS011;64480;52.040;113.502;2023-08-12T15:10:00;5.90;;;3.47;;
75837;SDS011;64480;52.040;113.502;2023-08-12T15:13:21;14.45;;;3.78;;
75837;SDS011;64480;52.040;113.502;2023-08-12T15:16:39;6.60;;;3.85;;
75837;SDS011;64480;52.040;113.502;2023-08-12T15:19:58;9.07;;;3.90;;
75837;SDS011;64480;52.040;113.502;2023-08-12T15:23:27;10.48;;;4.25;;
75837;SDS011;64480;52.040;113.502;2023-08-12T15:26:50;8.30;;;4.18;;
75837;SDS011;64480;52.040;113.502;2023-08-12T15:30:11;12.48;;;5.57;;
75837;SDS011;64480;52.040;113.502;2023-08-12T15:33:30;8.95;;;4.97;;
75837;SDS011;64480;52.040;113.502;2023-08-12T15:36:50;12.00;;;7.38;;
75837;SDS011;64480;52.040;113.502;2023-08-12T15:40:09;12.75;;;7.25;;
75837;SDS011;64480;52.040;113.502;2023-08-12T15:43:27;15.48;;;7.38;;
75837;SDS011;64480;52.040;113.502;2023-08-12T15:46:47;14.43;;;7.50;;
75837;SDS011;64480;52.040;113.502;2023-08-12T15:50:10;14.50;;;5.57;;
75837;SDS011;64480;52.040;113.502;2023-08-12T15:53:30;13.15;;;6.30;;
75837;SDS011;64480;52.040;113.502;2023-08-12T15:56:48;11.60;;;5.43;;
75837;SDS011;64480;52.040;113.502;2023-08-12T16:00:07;11.40;;;5.35;;
75837;SDS011;64480;52.040;113.502;2023-08-12T16:03:29;12.05;;;5.63;;
75837;SDS011;64480;52.040;113.502;2023-08-12T16:06:48;15.45;;;6.18;;
75837;SDS011;64480;52.040;113.502;2023-08-12T16:10:05;9.40;;;5.43;;
75837;SDS011;64480;52.040;113.502;2023-08-12T16:13:23;12.68;;;5.97;;
75837;SDS011;64480;52.040;113.502;2023-08-12T16:16:33;13.88;;;6.38;;
75837;SDS011;64480;52.040;113.502;2023-08-12T16:19:50;13.85;;;5.20;;
75837;SDS011;64480;52.040;113.502;2023-08-12T16:23:08;11.13;;;5.10;;
75837;SDS011;64480;52.040;113.502;2023-08-12T16:26:27;10.55;;;5.88;;
75837;SDS011;64480;52.040;113.502;2023-08-12T16:29:44;12.25;;;5.40;;
75837;SDS011;64480;52.040;113.502;2023-08-12T16:33:04;9.80;;;6.13;;
75837;SDS011;64480;52.040;113.502;2023-08-12T16:36:21;8.85;;;6.20;;
75837;SDS011;64480;52.040;113.502;2023-08-12T16:39:43;11.95;;;6.40;;
75837;SDS011;64480;52.040;113.502;2023-08-12T16:43:02;12.15;;;6.07;;
75837;SDS011;64480;52.040;113.502;2023-08-12T16:49:38;13.18;;;5.40;;
75837;SDS011;64480;52.040;113.502;2023-08-12T16:52:57;9.82;;;5.68;;
75837;SDS011;64480;52.040;113.502;2023-08-12T16:56:15;11.90;;;5.40;;
75837;SDS011;64480;52.040;113.502;2023-08-12T16:59:48;10.55;;;5.82;;
75837;SDS011;64480;52.040;113.502;2023-08-12T17:03:06;10.77;;;5.80;;
75837;SDS011;64480;52.040;113.502;2023-08-12T17:06:23;13.25;;;6.35;;
75837;SDS011;64480;52.040;113.502;2023-08-12T17:09:41;16.95;;;6.75;;
75837;SDS011;64480;52.040;113.502;2023-08-12T17:13:00;14.23;;;5.93;;
75837;SDS011;64480;52.040;113.502;2023-08-12T17:16:17;9.25;;;4.80;;
75837;SDS011;64480;52.040;113.502;2023-08-12T17:22:51;10.18;;;4.65;;
75837;SDS011;64480;52.040;113.502;2023-08-12T17:26:09;10.10;;;4.88;;
75837;SDS011;64480;52.040;113.502;2023-08-12T17:29:31;14.02;;;5.25;;
75837;SDS011;64480;52.040;113.502;2023-08-12T17:32:47;15.18;;;6.25;;
75837;SDS011;64480;52.040;113.502;2023-08-12T17:36:06;11.80;;;5.90;;
75837;SDS011;64480;52.040;113.502;2023-08-12T17:39:23;9.73;;;5.22;;
75837;SDS011;64480;52.040;113.502;2023-08-12T17:42:42;9.20;;;4.85;;
75837;SDS011;64480;52.040;113.502;2023-08-12T17:49:21;10.95;;;5.82;;
75837;SDS011;64480;52.040;113.502;2023-08-12T17:52:40;12.55;;;5.60;;
75837;SDS011;64480;52.040;113.502;2023-08-12T17:55:57;12.48;;;5.43;;
75837;SDS011;64480;52.040;113.502;2023-08-12T17:59:14;11.05;;;5.13;;
75837;SDS011;64480;52.040;113.502;2023-08-12T18:02:28;9.02;;;5.38;;
75837;SDS011;64480;52.040;113.502;2023-08-12T18:05:34;14.40;;;5.38;;
75837;SDS011;64480;52.040;113.502;2023-08-12T18:08:51;13.80;;;6.45;;
75837;SDS011;64480;52.040;113.502;2023-08-12T18:11:56;16.75;;;6.35;;
75837;SDS011;64480;52.040;113.502;2023-08-12T18:15:14;15.57;;;6.55;;
75837;SDS011;64480;52.040;113.502;2023-08-12T18:18:35;12.82;;;6.95;;
75837;SDS011;64480;52.040;113.502;2023-08-12T18:21:46;12.45;;;6.45;;
75837;SDS011;64480;52.040;113.502;2023-08-12T18:25:03;10.48;;;5.40;;
75837;SDS011;64480;52.040;113.502;2023-08-12T18:28:21;13.70;;;5.90;;
75837;SDS011;64480;52.040;113.502;2023-08-12T18:31:25;13.02;;;6.32;;
75837;SDS011;64480;52.040;113.502;2023-08-12T18:34:35;14.05;;;6.15;;
75837;SDS011;64480;52.040;113.502;2023-08-12T18:37:42;12.80;;;5.53;;
75837;SDS011;64480;52.040;113.502;2023-08-12T18:40:46;13.95;;;5.38;;
75837;SDS011;64480;52.040;113.502;2023-08-12T18:43:53;12.38;;;6.57;;
75837;SDS011;64480;52.040;113.502;2023-08-12T18:46:56;19.35;;;5.63;;
75837;SDS011;64480;52.040;113.502;2023-08-12T18:50:01;10.80;;;5.45;;
75837;SDS011;64480;52.040;113.502;2023-08-12T18:53:05;9.88;;;5.68;;
75837;SDS011;64480;52.040;113.502;2023-08-12T18:56:09;10.25;;;5.63;;
75837;SDS011;64480;52.040;113.502;2023-08-12T18:59:14;15.77;;;5.50;;
75837;SDS011;64480;52.040;113.502;2023-08-12T19:02:19;11.68;;;5.45;;
75837;SDS011;64480;52.040;113.502;2023-08-12T19:05:22;10.52;;;4.65;;